Time;durP1;ratioP1;P1;durP2;ratioP2;P2;SDS_P1;SDS_P2;PMS_P1;PMS_P2;Temp;Humidity;BMP_temperature;BMP_pressure;BME280_temperature;BME280_humidity;BME280_pressure;Samples;Min_cycle;Max_cycle;Signal;HPM_P1;HPM_P2
2022/12/15 00:41:03;;;;;;;5.60;2.28;;;13.80;99.90;;;;;;5058632;28;20036;-73
2022/12/15 00:43:31;;;;;;;9.57;2.72;;;13.80;99.90;;;;;;5054601;28;20036;-73
2022/12/15 00:48:42;;;;;;;7.72;2.65;;;13.80;99.90;;;;;;5055013;28;20036;-74
2022/12/15 00:51:09;;;;;;;6.60;2.78;;;13.80;99.90;;;;;;5058923;28;20174;-75
2022/12/15 01:21:09;;;;;;;7.75;3.80;;;13.60;99.90;;;;;;5055039;28;20040;-73
2022/12/15 01:23:37;;;;;;;10.90;3.70;;;13.60;99.90;;;;;;5056456;28;20491;-73
2022/12/15 01:26:04;;;;;;;11.35;4.57;;;13.50;99.90;;;;;;5052985;28;20056;-74
2022/12/15 01:28:30;;;;;;;12.18;4.00;;;13.50;99.90;;;;;;5053733;28;20048;-73
2022/12/15 01:30:56;;;;;;;9.20;3.20;;;13.50;99.90;;;;;;5063590;28;20396;-74
2022/12/15 01:33:22;;;;;;;11.77;4.15;;;13.60;99.90;;;;;;5054822;28;20047;-72
2022/12/15 01:35:58;;;;;;;6.15;2.80;;;13.60;99.90;;;;;;5055515;28;20361;-73
2022/12/15 01:38:26;;;;;;;11.80;4.47;;;13.70;99.90;;;;;;5055651;28;20086;-74
2022/12/15 01:40:59;;;;;;;7.03;2.97;;;13.70;99.90;;;;;;5056955;28;20380;-72
2022/12/15 01:43:34;;;;;;;10.00;3.17;;;13.70;99.90;;;;;;5057612;28;20123;-74
2022/12/15 01:46:02;;;;;;;8.88;3.22;;;13.70;99.90;;;;;;5059020;28;20059;-73
2022/12/15 01:48:40;;;;;;;9.25;3.30;;;13.70;99.90;;;;;;5034801;28;20473;-73
2022/12/15 01:51:14;;;;;;;9.32;2.70;;;13.70;99.90;;;;;;5036872;28;20476;-74
2022/12/15 01:54:07;;;;;;;9.88;3.50;;;13.70;99.90;;;;;;5035166;28;20060;-74
2022/12/15 01:56:37;;;;;;;8.10;3.20;;;13.80;99.90;;;;;;5056918;28;20042;-74
2022/12/15 01:59:06;;;;;;;9.75;3.25;;;13.80;99.90;;;;;;5053818;28;20480;-73
2022/12/15 02:01:32;;;;;;;9.85;3.53;;;13.80;99.90;;;;;;5059726;28;20086;-75
2022/12/15 02:03:58;;;;;;;10.73;3.97;;;13.90;99.90;;;;;;5058781;28;20033;-74
2022/12/15 02:06:24;;;;;;;8.45;3.17;;;13.80;99.90;;;;;;5056799;28;20472;-74
2022/12/15 02:08:52;;;;;;;;;;;13.80;99.90;;;;;;5052708;28;20032;-74
2022/12/15 02:11:40;;;;;;;9.52;4.20;;;13.70;99.90;;;;;;5058417;28;20368;-74
2022/12/15 02:14:09;;;;;;;9.38;4.80;;;13.70;99.90;;;;;;5052592;28;20041;-74
2022/12/15 02:16:44;;;;;;;11.80;4.75;;;13.60;99.90;;;;;;5051495;28;20427;-73
2022/12/15 02:19:49;;;;;;;9.88;5.38;;;13.50;99.90;;;;;;5053800;28;20131;-73
2022/12/15 02:23:04;;;;;;;10.45;5.72;;;13.40;99.90;;;;;;5058003;28;20033;-73
2022/12/15 02:25:49;;;;;;;;;;;13.30;99.90;;;;;;5058791;28;20046;-72
2022/12/15 02:28:30;;;;;;;13.38;5.72;;;13.20;99.90;;;;;;5054978;28;19922;-74
2022/12/15 02:34:04;;;;;;;11.25;6.28;;;13.10;99.90;;;;;;5032180;28;20055;-73
2022/12/15 02:36:38;;;;;;;13.48;5.70;;;13.10;99.90;;;;;;5053238;28;20036;-73
2022/12/15 02:39:06;;;;;;;13.45;6.05;;;13.10;99.90;;;;;;5063817;28;20120;-73
2022/12/15 02:41:38;;;;;;;14.10;6.00;;;13.00;99.90;;;;;;5060311;28;20025;-73
2022/12/15 02:44:36;;;;;;;10.63;5.68;;;13.10;99.90;;;;;;5061064;28;20131;-74
2022/12/15 02:47:36;;;;;;;13.55;5.55;;;13.20;99.90;;;;;;5031802;28;20087;-73
2022/12/15 02:50:28;;;;;;;10.88;5.60;;;13.20;99.90;;;;;;5048961;28;20033;-73
2022/12/15 02:53:13;;;;;;;12.88;5.95;;;13.40;99.90;;;;;;5058483;28;20112;-73
2022/12/15 02:56:03;;;;;;;10.60;5.60;;;13.50;99.90;;;;;;5055431;28;20105;-73
2022/12/15 02:58:52;;;;;;;11.32;5.75;;;13.50;99.90;;;;;;5036612;28;20083;-73
2022/12/15 03:01:28;;;;;;;10.18;4.95;;;13.60;99.90;;;;;;5038035;28;20125;-74
2022/12/15 03:03:56;;;;;;;10.48;4.65;;;13.60;99.90;;;;;;5039802;28;20041;-72
2022/12/15 03:06:25;;;;;;;11.15;4.93;;;13.70;99.90;;;;;;5038309;28;20044;-73
2022/12/15 03:08:51;;;;;;;9.18;4.70;;;13.70;99.90;;;;;;5031888;28;20120;-73
2022/12/15 03:11:17;;;;;;;7.47;4.60;;;13.60;99.90;;;;;;5027077;28;20128;-73
2022/12/15 03:13:43;;;;;;;9.95;4.22;;;13.70;99.90;;;;;;5041394;28;20367;-72
2022/12/15 03:16:08;;;;;;;9.05;4.47;;;13.70;99.90;;;;;;5034529;28;20046;-73
2022/12/15 03:18:36;;;;;;;8.25;4.47;;;13.70;99.90;;;;;;5037930;28;20047;-73
2022/12/15 03:21:02;;;;;;;9.77;4.53;;;13.70;99.90;;;;;;5051563;28;20645;-73
2022/12/15 03:23:28;;;;;;;11.52;4.82;;;13.70;99.90;;;;;;5050839;28;20018;-73
2022/12/15 03:25:54;;;;;;;12.43;5.07;;;13.70;99.90;;;;;;5041833;28;20080;-73
2022/12/15 03:28:23;;;;;;;9.50;4.70;;;13.80;99.90;;;;;;5053819;28;20041;-74
2022/12/15 03:30:49;;;;;;;10.82;5.22;;;13.80;99.90;;;;;;5037108;28;20044;-74
2022/12/15 03:33:16;;;;;;;11.25;4.65;;;13.80;99.90;;;;;;5033186;28;20037;-73
2022/12/15 03:35:42;;;;;;;9.82;4.60;;;13.90;99.90;;;;;;5038313;28;20040;-73
2022/12/15 03:38:07;;;;;;;8.50;4.55;;;14.00;99.90;;;;;;5047012;28;22261;-72
2022/12/15 03:40:33;;;;;;;8.32;4.13;;;14.00;99.90;;;;;;5040163;28;20098;-73
2022/12/15 03:42:59;;;;;;;10.05;4.20;;;14.00;99.90;;;;;;5036553;28;20057;-73
2022/12/15 03:45:27;;;;;;;10.23;4.28;;;14.00;99.90;;;;;;5039965;28;20088;-73
2022/12/15 03:47:55;;;;;;;11.20;4.45;;;14.00;99.90;;;;;;5042990;28;20052;-73
2022/12/15 03:50:24;;;;;;;8.80;4.28;;;14.00;99.90;;;;;;5034581;28;20158;-73
2022/12/15 03:52:54;;;;;;;10.55;4.30;;;14.10;99.90;;;;;;5041508;28;20116;-73
2022/12/15 03:55:21;;;;;;;9.90;4.40;;;14.00;99.90;;;;;;5038076;28;20496;-73
2022/12/15 03:57:47;;;;;;;;;;;14.10;99.90;;;;;;5051176;28;20032;-73
2022/12/15 04:00:14;;;;;;;8.02;3.70;;;14.10;99.90;;;;;;5039255;28;20470;-74
2022/12/15 04:02:41;;;;;;;11.50;3.70;;;14.10;99.90;;;;;;5034590;28;20045;-75
2022/12/15 04:05:11;;;;;;;10.90;4.50;;;14.10;99.90;;;;;;5037149;28;20029;-73
2022/12/15 04:07:36;;;;;;;11.15;4.38;;;14.10;99.90;;;;;;5033206;28;20365;-74
2022/12/15 04:10:03;;;;;;;11.55;4.28;;;14.10;99.90;;;;;;5043129;28;20034;-74
2022/12/15 04:12:29;;;;;;;14.55;4.25;;;14.10;99.90;;;;;;5037335;28;20148;-73
2022/12/15 04:14:56;;;;;;;9.70;4.43;;;14.00;99.90;;;;;;5044488;28;20123;-74
2022/12/15 04:17:21;;;;;;;;;;;14.00;99.90;;;;;;5033261;28;20427;-75
2022/12/15 04:22:32;;;;;;;9.73;4.07;;;14.00;99.90;;;;;;5059348;28;20056;-74
2022/12/15 05:33:56;;;;;;;20.20;7.20;;;13.80;99.90;;;;;;5055567;28;20163;-73
2022/12/15 05:36:23;;;;;;;16.45;6.03;;;13.90;99.90;;;;;;5060870;28;21471;-74
2022/12/15 05:38:50;;;;;;;15.82;6.05;;;13.90;99.90;;;;;;5054107;28;20025;-73
2022/12/15 05:41:17;;;;;;;17.05;5.75;;;14.00;99.90;;;;;;5054989;28;20127;-74
2022/12/15 05:43:43;;;;;;;18.00;7.28;;;14.00;99.90;;;;;;5057658;28;20029;-74
2022/12/15 05:46:10;;;;;;;13.15;6.30;;;14.00;99.90;;;;;;5054910;28;20545;-73
2022/12/15 05:48:36;;;;;;;19.88;6.18;;;14.00;99.90;;;;;;5071219;28;20029;-74
2022/12/15 05:51:05;;;;;;;18.85;6.90;;;14.10;99.90;;;;;;5054396;28;20132;-74
2022/12/15 05:53:31;;;;;;;14.40;6.70;;;14.10;99.90;;;;;;5059879;28;20503;-74
2022/12/15 05:56:05;;;;;;;14.57;7.28;;;14.10;99.90;;;;;;5062571;28;20037;-73
2022/12/15 05:58:31;;;;;;;17.92;7.53;;;14.10;99.90;;;;;;5056510;28;20033;-73
2022/12/15 06:01:24;;;;;;;20.38;7.43;;;14.10;99.90;;;;;;5052042;28;20051;-73
2022/12/15 06:03:50;;;;;;;18.77;6.95;;;14.10;99.90;;;;;;5034324;28;20045;-74
2022/12/15 06:06:17;;;;;;;20.83;7.78;;;14.10;99.90;;;;;;5041454;28;20103;-75
2022/12/15 06:08:43;;;;;;;20.95;8.02;;;14.10;99.90;;;;;;5050562;28;20026;-75
2022/12/15 06:11:15;;;;;;;23.75;9.48;;;14.10;99.90;;;;;;5035552;28;20504;-74
2022/12/15 06:13:41;;;;;;;23.27;8.45;;;14.10;99.90;;;;;;5039556;28;20041;-74
2022/12/15 06:16:11;;;;;;;27.17;8.60;;;14.10;99.90;;;;;;5045887;28;20029;-75
2022/12/15 06:18:45;;;;;;;21.27;9.20;;;14.10;99.90;;;;;;5041256;28;20164;-75
2022/12/15 06:21:19;;;;;;;20.90;8.48;;;14.10;99.90;;;;;;5035984;28;20489;-77
2022/12/15 06:23:45;;;;;;;19.40;6.78;;;14.10;99.90;;;;;;5036558;28;20384;-75
2022/12/15 06:26:20;;;;;;;17.55;5.95;;;14.10;99.90;;;;;;5045665;28;20157;-74
2022/12/15 06:28:47;;;;;;;15.52;5.20;;;14.10;99.90;;;;;;5046293;28;20113;-75
2022/12/15 06:31:14;;;;;;;8.20;4.38;;;13.90;99.90;;;;;;5038133;28;20492;-74
2022/12/15 06:33:40;;;;;;;9.90;3.95;;;12.90;99.90;;;;;;5040941;28;20442;-74
2022/12/15 06:36:13;;;;;;;12.77;5.80;;;12.50;99.90;;;;;;5038122;28;20043;-74
2022/12/15 06:38:42;;;;;;;11.55;5.28;;;12.30;99.90;;;;;;5030253;28;20064;-72
2022/12/15 06:41:11;;;;;;;10.88;5.35;;;12.10;99.90;;;;;;5038644;28;20064;-73
2022/12/15 06:43:37;;;;;;;11.20;5.32;;;12.10;99.90;;;;;;5029129;28;20079;-74
2022/12/15 06:46:03;;;;;;;8.70;4.13;;;12.10;99.90;;;;;;5051005;28;20677;-72
2022/12/15 06:48:29;;;;;;;7.38;3.17;;;12.30;99.90;;;;;;5034995;28;20562;-71
2022/12/15 06:50:56;;;;;;;8.40;4.13;;;12.30;99.90;;;;;;5036696;28;20049;-72
2022/12/15 06:53:23;;;;;;;6.70;3.10;;;12.40;99.90;;;;;;5041006;28;20580;-73
2022/12/15 06:55:49;;;;;;;6.20;2.63;;;12.40;99.90;;;;;;5047110;28;20036;-72
2022/12/15 06:58:15;;;;;;;6.07;2.60;;;12.50;99.90;;;;;;5045233;28;20030;-72
2022/12/15 07:00:43;;;;;;;3.97;1.50;;;12.60;99.90;;;;;;5023170;28;20148;-73
2022/12/15 07:03:14;;;;;;;4.75;1.35;;;12.60;99.90;;;;;;5035605;28;20531;-72
2022/12/15 07:05:39;;;;;;;2.50;0.88;;;12.50;99.90;;;;;;5044591;28;20030;-72
2022/12/15 07:08:05;;;;;;;2.45;0.82;;;12.50;99.90;;;;;;5035297;28;20033;-72
2022/12/15 07:10:32;;;;;;;4.40;1.58;;;12.50;99.90;;;;;;5037248;28;20531;-73
2022/12/15 07:12:58;;;;;;;2.45;0.95;;;12.40;99.90;;;;;;5040582;28;20130;-72
2022/12/15 07:15:24;;;;;;;1.83;0.60;;;12.50;99.90;;;;;;5036970;28;20477;-71
2022/12/15 07:17:53;;;;;;;1.45;0.60;;;12.70;99.90;;;;;;5034995;28;20044;-72
2022/12/15 07:20:20;;;;;;;2.40;0.60;;;12.70;99.90;;;;;;5052373;28;20099;-72
2022/12/15 07:22:50;;;;;;;2.58;0.55;;;12.80;99.90;;;;;;5035334;28;20167;-73
2022/12/15 07:25:17;;;;;;;1.73;0.93;;;12.80;99.90;;;;;;5038163;28;20033;-73
2022/12/15 07:27:43;;;;;;;1.88;0.40;;;12.90;99.90;;;;;;5036315;28;20037;-75
2022/12/15 07:30:10;;;;;;;2.28;0.77;;;12.80;99.90;;;;;;5038222;28;20576;-74
2022/12/15 07:32:38;;;;;;;2.35;0.70;;;12.70;99.90;;;;;;5035678;28;20277;-75
2022/12/15 07:35:06;;;;;;;0.65;0.30;;;12.70;99.90;;;;;;5038855;28;20037;-72
2022/12/15 07:37:32;;;;;;;1.90;0.60;;;12.80;99.90;;;;;;5035822;28;20034;-72
2022/12/15 07:39:58;;;;;;;2.60;0.98;;;12.70;99.90;;;;;;5030847;28;20033;-73
2022/12/15 07:42:23;;;;;;;2.30;0.60;;;12.60;99.90;;;;;;5037361;28;20052;-73
2022/12/15 07:44:49;;;;;;;0.88;0.40;;;12.60;99.90;;;;;;5016357;28;20033;-74
2022/12/15 07:47:16;;;;;;;1.25;0.70;;;12.50;99.90;;;;;;5043032;28;20037;-73
2022/12/15 07:49:42;;;;;;;1.23;0.40;;;12.50;99.90;;;;;;5041974;28;20175;-71
2022/12/15 07:52:08;;;;;;;1.42;0.30;;;12.40;99.90;;;;;;5037360;28;20116;-72
2022/12/15 07:54:33;;;;;;;1.42;0.40;;;12.40;99.90;;;;;;5032696;28;20048;-73
2022/12/15 07:57:01;;;;;;;1.25;0.70;;;12.30;99.90;;;;;;5043535;28;20509;-72
2022/12/15 07:59:27;;;;;;;0.82;0.52;;;12.30;99.90;;;;;;5049344;28;20037;-74
2022/12/15 08:01:53;;;;;;;1.17;0.40;;;12.30;99.90;;;;;;5031922;28;20052;-72
2022/12/15 08:04:18;;;;;;;2.63;0.60;;;12.30;99.90;;;;;;5033832;28;20040;-72
2022/12/15 08:06:44;;;;;;;1.25;0.20;;;12.30;99.90;;;;;;5036234;28;20352;-74
2022/12/15 08:09:11;;;;;;;1.17;0.57;;;12.40;99.90;;;;;;5039691;28;20034;-73
2022/12/15 08:11:37;;;;;;;0.77;0.30;;;12.40;99.90;;;;;;5032956;28;20545;-73
2022/12/15 08:14:03;;;;;;;1.08;0.50;;;12.40;99.90;;;;;;5030758;28;20520;-72
2022/12/15 08:16:29;;;;;;;1.42;0.68;;;12.50;99.90;;;;;;5057609;28;20036;-73
2022/12/15 08:18:57;;;;;;;2.10;0.70;;;12.50;99.90;;;;;;5060231;28;20037;-73
2022/12/15 08:21:23;;;;;;;1.10;0.50;;;12.60;99.90;;;;;;5057529;28;20041;-73
2022/12/15 08:23:49;;;;;;;0.85;0.45;;;12.70;99.90;;;;;;5056073;28;20043;-73
2022/12/15 08:26:17;;;;;;;0.90;0.40;;;12.70;99.90;;;;;;5068900;28;20032;-73
2022/12/15 08:28:44;;;;;;;1.38;0.40;;;12.80;99.90;;;;;;5059125;28;21310;-73
2022/12/15 08:31:16;;;;;;;1.20;0.40;;;12.90;99.90;;;;;;5059375;28;20036;-73
2022/12/15 08:33:42;;;;;;;1.15;0.57;;;12.90;99.90;;;;;;5057501;28;20025;-73
2022/12/15 08:36:11;;;;;;;1.40;0.60;;;13.00;99.90;;;;;;5059530;28;20045;-73
2022/12/15 08:38:39;;;;;;;2.25;0.60;;;13.20;99.90;;;;;;5052167;28;20075;-73
2022/12/15 08:41:18;;;;;;;2.17;0.70;;;13.30;99.90;;;;;;5061132;28;20063;-74
2022/12/15 08:43:50;;;;;;;1.77;0.60;;;13.40;99.90;;;;;;5057132;28;20049;-72
2022/12/15 08:46:18;;;;;;;3.08;0.70;;;13.50;99.90;;;;;;5059751;28;20472;-72
2022/12/15 08:48:44;;;;;;;2.67;0.70;;;13.40;99.90;;;;;;5057683;28;20135;-73
2022/12/15 08:51:10;;;;;;;1.90;0.60;;;13.50;99.90;;;;;;5062945;28;20106;-73
2022/12/15 08:53:37;;;;;;;1.92;0.80;;;13.50;99.90;;;;;;5062979;28;20182;-74
2022/12/15 08:56:14;;;;;;;1.80;0.85;;;13.60;99.90;;;;;;5059662;28;20061;-73
2022/12/15 08:58:40;;;;;;;2.28;0.70;;;13.80;99.90;;;;;;5043950;28;20044;-75
2022/12/15 09:01:12;;;;;;;3.08;1.27;;;13.90;99.90;;;;;;5061948;28;20040;-74
2022/12/15 09:03:39;;;;;;;2.53;0.77;;;14.10;99.90;;;;;;5052935;28;20033;-74
2022/12/15 09:06:07;;;;;;;1.80;0.85;;;14.30;99.90;;;;;;5060686;28;20060;-74
2022/12/15 09:08:33;;;;;;;2.20;0.80;;;14.30;99.90;;;;;;5054521;28;20064;-73
2022/12/15 09:11:01;;;;;;;1.83;1.05;;;14.40;99.90;;;;;;5057572;28;20493;-74
2022/12/15 09:13:27;;;;;;;3.03;1.17;;;14.40;99.90;;;;;;5055808;28;20124;-75
2022/12/15 09:16:12;;;;;;;3.22;0.90;;;14.50;99.90;;;;;;5073742;28;20028;-73
2022/12/15 09:18:41;;;;;;;4.25;1.13;;;14.50;99.90;;;;;;5057643;28;20529;-73
2022/12/15 09:21:07;;;;;;;2.83;1.45;;;14.70;99.90;;;;;;5056716;28;20033;-74
2022/12/15 09:23:34;;;;;;;2.17;1.20;;;15.10;99.90;;;;;;5066095;28;20028;-75
2022/12/15 09:26:01;;;;;;;4.18;2.08;;;15.30;99.90;;;;;;5057620;28;20109;-74
2022/12/15 09:28:29;;;;;;;4.53;1.10;;;15.50;99.90;;;;;;5033790;28;20042;-74
2022/12/15 09:31:10;;;;;;;2.28;0.95;;;15.80;99.90;;;;;;5054000;28;20032;-73
2022/12/15 09:33:36;;;;;;;2.35;1.00;;;16.00;99.90;;;;;;5060308;28;20031;-74
2022/12/15 09:36:03;;;;;;;5.18;1.30;;;16.20;99.90;;;;;;5056810;28;20036;-74
2022/12/15 09:38:29;;;;;;;;;;;16.10;99.90;;;;;;5056964;28;20032;-75
2022/12/15 09:40:56;;;;;;;2.05;0.75;;;16.20;99.90;;;;;;5056780;28;19917;-73
2022/12/15 09:43:27;;;;;;;3.95;1.00;;;16.10;99.90;;;;;;5059122;28;20067;-74
2022/12/15 09:46:04;;;;;;;2.65;1.00;;;16.30;99.90;;;;;;5055563;28;20485;-74
2022/12/15 09:48:39;;;;;;;7.78;1.52;;;16.30;99.90;;;;;;5055641;28;20044;-74
2022/12/15 09:51:11;;;;;;;3.55;0.93;;;16.80;99.90;;;;;;5064638;28;20033;-74
2022/12/15 09:53:38;;;;;;;2.58;1.05;;;16.70;99.90;;;;;;5063506;28;20379;-75
2022/12/15 09:56:07;;;;;;;;;;;16.90;99.90;;;;;;5066345;28;20673;-73
2022/12/15 09:58:47;;;;;;;6.50;1.42;;;16.90;99.90;;;;;;5039751;28;19935;-74
2022/12/15 10:01:34;;;;;;;2.55;1.00;;;17.00;99.90;;;;;;5065766;28;20423;-76
2022/12/15 10:03:59;;;;;;;4.85;1.30;;;17.30;99.90;;;;;;5060653;28;20037;-74
2022/12/15 10:06:37;;;;;;;5.10;1.50;;;17.40;99.90;;;;;;5046244;28;20072;-75
2022/12/15 10:09:17;;;;;;;4.13;1.20;;;17.50;99.90;;;;;;5037030;28;20040;-75
2022/12/15 10:12:08;;;;;;;3.42;1.58;;;17.90;99.90;;;;;;5044575;28;20044;-75
2022/12/15 10:14:45;;;;;;;5.10;1.33;;;17.80;99.90;;;;;;5060286;28;20029;-74
2022/12/15 10:17:20;;;;;;;5.32;1.35;;;18.00;99.90;;;;;;5070926;28;20534;-74
2022/12/15 10:19:58;;;;;;;5.18;1.60;;;18.00;99.90;;;;;;5060864;28;20048;-75
2022/12/15 10:22:36;;;;;;;5.03;1.58;;;18.30;99.90;;;;;;5055708;28;20046;-75
2022/12/15 10:25:20;;;;;;;;;;;18.40;99.90;;;;;;5044915;28;21054;-75
2022/12/15 10:28:07;;;;;;;4.13;1.20;;;18.30;99.90;;;;;;5053296;28;20581;-74
2022/12/15 10:30:34;;;;;;;4.10;1.38;;;18.50;99.90;;;;;;5043230;28;20028;-74
2022/12/15 10:33:21;;;;;;;4.65;1.58;;;18.70;99.90;;;;;;5060272;28;20171;-73
2022/12/15 10:35:47;;;;;;;3.35;1.73;;;18.70;99.90;;;;;;5064921;28;20094;-74
2022/12/15 10:38:31;;;;;;;5.07;1.73;;;18.70;99.90;;;;;;5056468;28;20053;-74
2022/12/15 10:41:03;;;;;;;6.45;2.03;;;18.60;99.90;;;;;;5058979;28;20059;-75
2022/12/15 10:43:34;;;;;;;5.18;1.65;;;18.80;99.90;;;;;;5059339;28;20082;-74
2022/12/15 10:46:20;;;;;;;4.00;1.50;;;18.90;99.90;;;;;;5062465;28;20087;-74
2022/12/15 10:48:58;;;;;;;6.45;1.95;;;19.00;99.90;;;;;;5058581;28;20071;-74
2022/12/15 10:51:30;;;;;;;5.88;1.80;;;19.10;99.90;;;;;;5056078;28;20036;-74
2022/12/15 10:54:12;;;;;;;4.72;1.60;;;19.30;99.90;;;;;;5060529;28;20064;-74
2022/12/15 10:57:00;;;;;;;4.00;1.77;;;19.90;99.90;;;;;;5055018;28;20029;-74
2022/12/15 10:59:37;;;;;;;5.47;1.55;;;20.10;99.90;;;;;;5058208;28;20040;-75
2022/12/15 11:02:24;;;;;;;3.92;1.33;;;19.20;99.90;;;;;;5058334;28;20043;-75
2022/12/15 11:05:00;;;;;;;5.50;1.48;;;18.40;99.90;;;;;;5067219;28;20040;-75
2022/12/15 11:07:59;;;;;;;5.03;1.55;;;18.20;99.90;;;;;;5060977;28;20049;-75
2022/12/15 11:13:20;;;;;;;4.03;1.65;;;17.70;99.90;;;;;;5057623;28;20131;-74
2022/12/15 11:15:47;;;;;;;4.05;1.60;;;17.60;99.90;;;;;;5062113;28;20040;-74
2022/12/15 11:18:37;;;;;;;6.63;1.92;;;17.80;99.90;;;;;;5052395;28;20040;-75
2022/12/15 11:21:25;;;;;;;7.78;1.77;;;17.40;99.90;;;;;;5059826;28;20079;-74
2022/12/15 11:24:01;;;;;;;3.80;1.85;;;18.50;99.90;;;;;;5060216;28;20028;-74
2022/12/15 11:26:42;;;;;;;3.85;1.80;;;19.60;99.90;;;;;;5034882;28;20053;-74
2022/12/15 11:29:38;;;;;;;11.07;1.90;;;19.90;99.90;;;;;;5038296;28;20459;-74
2022/12/15 11:32:05;;;;;;;4.20;1.85;;;20.30;99.90;;;;;;5057551;28;20064;-74
2022/12/15 11:34:43;;;;;;;4.35;2.20;;;20.40;99.90;;;;;;5066136;28;20067;-74
2022/12/15 11:37:27;;;;;;;5.30;2.15;;;20.20;99.90;;;;;;5057529;28;20120;-74
2022/12/15 11:40:21;;;;;;;11.60;2.65;;;21.80;99.90;;;;;;5061659;28;20144;-74
2022/12/15 11:42:54;;;;;;;4.78;1.88;;;21.30;99.90;;;;;;5051695;28;20511;-75
2022/12/15 11:45:30;;;;;;;5.57;2.88;;;21.40;99.90;;;;;;5037382;28;20039;-74
2022/12/15 11:48:31;;;;;;;3.25;1.60;;;22.30;99.90;;;;;;5058039;28;20472;-75
2022/12/15 11:51:16;;;;;;;5.07;2.30;;;22.30;99.90;;;;;;5044974;28;20530;-74
2022/12/15 11:54:13;;;;;;;4.07;1.73;;;22.80;99.90;;;;;;5052545;28;20544;-75
2022/12/15 11:56:43;;;;;;;4.88;1.90;;;22.30;99.90;;;;;;5028458;28;20029;-74
2022/12/15 11:59:48;;;;;;;5.47;1.80;;;20.90;99.90;;;;;;5050215;28;20033;-74
2022/12/15 12:02:33;;;;;;;4.25;2.10;;;20.60;99.90;;;;;;5037954;28;20053;-74
2022/12/15 12:05:32;;;;;;;3.53;1.70;;;21.20;99.90;;;;;;5040133;28;20194;-74
2022/12/15 12:08:21;;;;;;;4.22;1.70;;;19.80;99.90;;;;;;5045250;28;20103;-75
2022/12/15 12:10:58;;;;;;;4.40;1.90;;;20.50;99.90;;;;;;5060272;28;20147;-74
2022/12/15 12:13:39;;;;;;;4.68;1.73;;;20.90;99.90;;;;;;5054597;28;20051;-74
2022/12/15 12:16:37;;;;;;;3.58;1.33;;;20.80;99.90;;;;;;5070122;28;20025;-74
2022/12/15 12:19:15;;;;;;;4.25;1.98;;;20.50;99.90;;;;;;5045482;28;20032;-74
2022/12/15 12:21:49;;;;;;;7.60;2.10;;;21.30;99.90;;;;;;5058623;28;20071;-74
2022/12/15 12:24:22;;;;;;;5.35;2.38;;;21.70;99.90;;;;;;5055105;28;20032;-74
2022/12/15 12:27:05;;;;;;;7.35;2.42;;;22.70;99.60;;;;;;5059421;28;20090;-73
2022/12/15 12:29:44;;;;;;;3.55;1.50;;;23.40;98.40;;;;;;5046883;28;20044;-74
2022/12/15 12:32:34;;;;;;;7.50;2.08;;;24.50;98.10;;;;;;5044280;28;20037;-74
2022/12/15 12:35:13;;;;;;;4.55;2.10;;;25.20;97.00;;;;;;5043276;28;20042;-75
2022/12/15 12:37:44;;;;;;;4.13;1.90;;;25.10;96.50;;;;;;5056640;28;20033;-75
2022/12/15 12:40:26;;;;;;;6.57;2.00;;;24.60;96.60;;;;;;5057067;28;20041;-75
2022/12/15 12:42:55;;;;;;;4.95;1.63;;;25.50;96.30;;;;;;5055801;28;20029;-74
2022/12/15 12:45:33;;;;;;;3.88;2.25;;;26.70;95.80;;;;;;5062597;28;20352;-74
2022/12/15 12:48:16;;;;;;;3.15;2.03;;;26.50;95.00;;;;;;5060212;28;20036;-74
2022/12/15 12:50:42;;;;;;;5.72;2.55;;;24.90;95.20;;;;;;5056813;28;20032;-74
2022/12/15 12:53:33;;;;;;;4.13;2.00;;;25.80;95.70;;;;;;5058933;28;20037;-75
2022/12/15 12:55:58;;;;;;;4.32;2.17;;;25.70;95.10;;;;;;5049273;28;20044;-74
2022/12/15 12:58:40;;;;;;;6.90;2.42;;;26.20;94.80;;;;;;5057285;28;20425;-74
2022/12/15 13:01:24;;;;;;;5.03;1.67;;;26.00;95.50;;;;;;5057728;28;20037;-75
2022/12/15 13:04:32;;;;;;;4.65;1.77;;;25.40;95.70;;;;;;5061669;28;20032;-75
2022/12/15 13:07:06;;;;;;;3.60;1.10;;;26.30;94.60;;;;;;5041581;28;20107;-74
2022/12/15 13:09:43;;;;;;;3.88;1.35;;;24.40;95.00;;;;;;5055636;28;20036;-76
2022/12/15 13:12:45;;;;;;;3.83;1.33;;;22.90;97.20;;;;;;5073652;28;20120;-74
2022/12/15 13:15:38;;;;;;;4.90;1.35;;;21.20;99.00;;;;;;5062603;28;20037;-74
2022/12/15 13:18:18;;;;;;;2.70;1.05;;;20.40;99.70;;;;;;5043785;28;20036;-74
2022/12/15 13:20:46;;;;;;;3.40;1.10;;;19.80;99.90;;;;;;5054551;28;20089;-74
2022/12/15 13:23:34;;;;;;;3.58;1.00;;;19.40;99.90;;;;;;5055017;28;20037;-75
2022/12/15 13:26:03;;;;;;;2.97;1.00;;;18.90;99.90;;;;;;5057407;28;20167;-74
2022/12/15 13:28:35;;;;;;;2.17;0.70;;;18.60;99.90;;;;;;5033838;28;20481;-75
2022/12/15 13:31:26;;;;;;;4.60;0.90;;;18.40;99.90;;;;;;5028145;28;20036;-74
2022/12/15 13:33:51;;;;;;;;;;;18.40;99.90;;;;;;5048572;28;20037;-75
2022/12/15 13:36:36;;;;;;;2.13;0.68;;;18.70;99.90;;;;;;5051795;28;19917;-74
2022/12/15 13:39:21;;;;;;;4.13;1.10;;;18.70;99.90;;;;;;5068185;28;20127;-74
2022/12/15 13:41:57;;;;;;;3.38;1.00;;;19.20;99.90;;;;;;5058283;28;20086;-74
2022/12/15 13:44:50;;;;;;;1.40;0.63;;;18.80;99.90;;;;;;5055221;28;20565;-73
2022/12/15 13:47:28;;;;;;;3.38;1.67;;;19.90;99.90;;;;;;5050931;28;20040;-75
2022/12/15 13:50:25;;;;;;;3.85;0.93;;;20.70;98.60;;;;;;5053999;28;20041;-74
2022/12/15 13:52:53;;;;;;;2.95;0.90;;;22.10;97.30;;;;;;5067896;28;20040;-74
2022/12/15 13:55:24;;;;;;;3.25;1.10;;;23.30;96.10;;;;;;5056769;28;20036;-74
2022/12/15 13:58:04;;;;;;;3.88;1.20;;;22.60;96.10;;;;;;5050106;28;20032;-74
2022/12/15 14:00:31;;;;;;;3.50;1.30;;;23.30;95.80;;;;;;5064630;28;20504;-73
2022/12/15 14:03:10;;;;;;;3.55;1.17;;;23.20;95.70;;;;;;5041905;28;20040;-74
2022/12/15 14:05:38;;;;;;;2.83;1.30;;;23.90;95.00;;;;;;5058233;28;20618;-74
2022/12/15 14:08:11;;;;;;;3.08;1.10;;;23.40;94.90;;;;;;5070898;28;20096;-76
2022/12/15 14:10:40;;;;;;;4.25;1.25;;;21.60;95.50;;;;;;5057253;28;20040;-73
2022/12/15 14:13:10;;;;;;;4.25;1.40;;;23.20;95.50;;;;;;5054879;28;20778;-75
2022/12/15 14:15:43;;;;;;;3.53;1.58;;;23.20;94.90;;;;;;5058103;28;20040;-74
2022/12/15 14:18:30;;;;;;;3.47;1.30;;;22.50;95.40;;;;;;5043916;28;20387;-74
2022/12/15 14:20:58;;;;;;;3.40;1.20;;;23.70;95.00;;;;;;5056953;28;20614;-74
2022/12/15 14:23:37;;;;;;;2.78;1.33;;;23.50;95.00;;;;;;5057300;28;20039;-73
2022/12/15 14:26:10;;;;;;;3.80;1.75;;;23.00;95.30;;;;;;5051388;28;20037;-73
2022/12/15 14:28:38;;;;;;;3.75;1.27;;;22.30;95.90;;;;;;5070328;28;20037;-73
2022/12/15 14:31:16;;;;;;;3.63;1.23;;;22.30;95.50;;;;;;5046044;28;20035;-74
2022/12/15 14:33:45;;;;;;;2.65;1.10;;;22.10;95.80;;;;;;5057505;28;20532;-75
2022/12/15 14:36:13;;;;;;;3.50;1.40;;;20.90;97.10;;;;;;5058597;28;20033;-75
2022/12/15 14:38:50;;;;;;;2.53;1.10;;;20.30;98.10;;;;;;5059518;28;20033;-73
2022/12/15 14:41:34;;;;;;;3.72;1.20;;;19.80;98.60;;;;;;5062415;28;20040;-74
2022/12/15 14:44:07;;;;;;;2.70;0.90;;;19.20;98.80;;;;;;5058434;28;20567;-73
2022/12/15 14:46:33;;;;;;;2.88;1.00;;;18.50;99.90;;;;;;5056541;28;20148;-74
2022/12/15 14:49:06;;;;;;;2.50;0.90;;;17.90;99.90;;;;;;5057637;28;20063;-73
2022/12/15 14:51:43;;;;;;;;;;;17.70;99.90;;;;;;5048917;28;20041;-73
2022/12/15 14:54:35;;;;;;;2.63;1.10;;;17.60;99.90;;;;;;5064278;28;19912;-74
2022/12/15 14:57:10;;;;;;;2.95;1.08;;;17.70;99.90;;;;;;5056645;28;20028;-73
2022/12/15 14:59:44;;;;;;;3.28;1.50;;;17.50;99.90;;;;;;5054290;28;20097;-73
2022/12/15 15:02:21;;;;;;;3.92;1.48;;;17.40;99.90;;;;;;5058697;28;20052;-74
2022/12/15 15:05:02;;;;;;;4.68;1.70;;;18.50;99.90;;;;;;5058662;28;20368;-73
2022/12/15 15:07:33;;;;;;;2.67;1.38;;;19.30;99.80;;;;;;5061622;28;20072;-73
2022/12/15 15:10:00;;;;;;;3.00;1.30;;;18.90;99.50;;;;;;5075892;28;20048;-73
2022/12/15 15:12:46;;;;;;;3.85;1.50;;;18.90;99.70;;;;;;5057141;28;20039;-73
2022/12/15 15:15:18;;;;;;;4.32;1.70;;;18.80;99.80;;;;;;5063510;28;20052;-73
2022/12/15 15:17:56;;;;;;;3.95;1.70;;;19.30;99.50;;;;;;5042768;28;20064;-73
2022/12/15 15:20:25;;;;;;;1.77;0.80;;;18.80;99.90;;;;;;5048155;28;20044;-75
2022/12/15 15:23:06;;;;;;;3.80;1.52;;;18.20;99.90;;;;;;5057138;28;20416;-75
2022/12/15 15:25:33;;;;;;;3.20;1.35;;;17.50;99.90;;;;;;5027349;28;20110;-75
2022/12/15 15:28:19;;;;;;;4.18;1.30;;;17.10;99.90;;;;;;5053834;28;20032;-73
2022/12/15 15:30:49;;;;;;;4.00;1.50;;;16.90;99.90;;;;;;5033319;28;20040;-74
2022/12/15 15:33:16;;;;;;;3.78;1.85;;;16.90;99.90;;;;;;5033255;28;20411;-74
2022/12/15 15:35:44;;;;;;;3.42;1.50;;;16.90;99.90;;;;;;5019540;28;20068;-74
2022/12/15 15:38:21;;;;;;;4.25;1.73;;;17.10;99.90;;;;;;5033228;28;20038;-74
2022/12/15 15:40:58;;;;;;;4.78;1.52;;;16.70;99.90;;;;;;5030119;28;20127;-74
2022/12/15 15:43:25;;;;;;;3.03;1.30;;;16.40;99.90;;;;;;5033542;28;20127;-74
2022/12/15 15:46:04;;;;;;;5.25;1.70;;;16.20;99.90;;;;;;5038879;28;20044;-74
2022/12/15 15:48:34;;;;;;;3.42;1.45;;;16.20;99.90;;;;;;5057087;28;20048;-74